Time;durP1;ratioP1;P1;durP2;ratioP2;P2;SDS_P1;SDS_P2;PMS_P1;PMS_P2;Temp;Humidity;BMP_temperature;BMP_pressure;BME280_temperature;BME280_humidity;BME280_pressure;Samples;Min_cycle;Max_cycle;Signal;HPM_P1;HPM_P2
2022/11/19 00:01:19;;;;;;;12.90;11.20;;;;;;;-0.14;100.00;95419.06;4976273;28;20442;-73
2022/11/19 00:03:47;;;;;;;12.50;10.03;;;;;;;-0.15;100.00;95414.91;4993161;28;20477;-72
2022/11/19 00:06:21;;;;;;;18.73;12.50;;;;;;;-0.16;100.00;95403.75;4994787;28;20532;-73
2022/11/19 00:08:48;;;;;;;14.50;11.90;;;;;;;-0.18;100.00;95418.09;4977530;28;20562;-74
2022/11/19 00:14:07;;;;;;;14.80;11.80;;;;;;;-0.12;100.00;95422.94;4986155;28;20467;-73
2022/11/19 00:16:34;;;;;;;12.53;10.50;;;;;;;-0.18;100.00;95412.88;4974952;28;20520;-73
2022/11/19 00:19:01;;;;;;;10.90;9.50;;;;;;;-0.13;100.00;95421.41;4973713;28;20497;-73
2022/11/19 00:21:27;;;;;;;11.13;9.30;;;;;;;-0.24;100.00;95411.41;4973677;28;20452;-73
2022/11/19 00:23:54;;;;;;;13.40;10.33;;;;;;;-0.27;100.00;95420.53;4973599;28;20473;-73
2022/11/19 00:26:22;;;;;;;15.23;11.07;;;;;;;-0.23;100.00;95413.75;4973641;28;20437;-73
2022/11/19 00:28:49;;;;;;;13.00;8.60;;;;;;;-0.25;100.00;95425.47;4967581;28;20456;-73
2022/11/19 00:31:16;;;;;;;10.77;8.07;;;;;;;-0.28;100.00;95423.41;4993305;28;20488;-73
2022/11/19 00:33:44;;;;;;;11.07;8.60;;;;;;;-0.26;100.00;95431.72;4976606;28;20506;-73
2022/11/19 00:36:17;;;;;;;10.10;8.10;;;;;;;-0.55;100.00;95419.56;4976922;28;20531;-73
2022/11/19 00:38:45;;;;;;;10.50;7.50;;;;;;;-0.55;100.00;95416.19;4993218;28;20909;-73
2022/11/19 00:41:11;;;;;;;11.17;8.10;;;;;;;-0.49;100.00;95444.44;4992910;28;20517;-73
2022/11/19 00:43:47;;;;;;;9.67;7.33;;;;;;;-0.65;100.00;95448.25;4993886;28;20987;-73
2022/11/19 00:46:35;;;;;;;11.13;7.77;;;;;;;-0.82;100.00;95424.53;4992958;28;20483;-73
2022/11/19 00:49:01;;;;;;;9.80;7.80;;;;;;;-0.61;100.00;95446.66;4973138;28;20991;-73
2022/11/19 00:51:29;;;;;;;8.50;7.17;;;;;;;-0.79;100.00;95422.19;4976436;28;20827;-73
2022/11/19 00:53:57;;;;;;;10.47;8.03;;;;;;;-0.86;100.00;95390.59;4972516;28;20471;-73
2022/11/19 00:56:25;;;;;;;9.80;7.87;;;;;;;-0.72;100.00;95434.81;4956989;28;20545;-74
2022/11/19 00:58:52;;;;;;;8.03;7.20;;;;;;;-0.90;100.00;95408.56;4974018;28;20456;-73
2022/11/19 01:01:22;;;;;;;13.53;7.53;;;;;;;-0.85;100.00;95422.50;4967405;28;20538;-73
2022/11/19 01:03:49;;;;;;;8.17;6.83;;;;;;;-0.77;100.00;95432.28;4991979;28;20468;-73
2022/11/19 01:06:19;;;;;;;8.23;7.43;;;;;;;-0.62;100.00;95440.69;4992234;28;20527;-73
2022/11/19 01:08:47;;;;;;;8.33;6.30;;;;;;;-0.97;100.00;95402.91;5008354;28;20460;-73
2022/11/19 01:11:20;;;;;;;8.23;6.67;;;;;;;-0.60;100.00;95450.78;4992200;28;20556;-73
2022/11/19 01:13:48;;;;;;;8.23;7.00;;;;;;;-0.85;100.00;95412.13;4992247;28;20812;-73
2022/11/19 01:16:18;;;;;;;9.00;7.43;;;;;;;-0.73;100.00;95448.84;4992185;28;20435;-73
2022/11/19 01:18:47;;;;;;;8.63;7.40;;;;;;;-0.74;100.00;95452.50;4992294;28;20542;-73
2022/11/19 01:21:16;;;;;;;9.87;8.00;;;;;;;-0.76;100.00;95442.38;4993256;28;20432;-73
2022/11/19 01:23:43;;;;;;;8.67;7.37;;;;;;;-0.76;100.00;95444.97;4992022;28;20587;-73
2022/11/19 01:26:11;;;;;;;9.67;7.97;;;;;;;-0.83;100.00;95431.56;4991808;28;20495;-73
2022/11/19 01:28:38;;;;;;;11.80;8.87;;;;;;;-0.88;100.00;95429.03;4993116;28;20488;-73
2022/11/19 01:31:20;;;;;;;10.60;8.30;;;;;;;-0.56;100.00;95461.38;4991650;28;20531;-73
2022/11/19 01:33:47;;;;;;;9.63;8.10;;;;;;;-0.67;100.00;95447.72;4991630;28;20436;-73
2022/11/19 01:36:18;;;;;;;11.90;8.30;;;;;;;-0.83;100.00;95423.78;4975218;28;20443;-73
2022/11/19 01:38:50;;;;;;;10.40;8.57;;;;;;;-0.69;100.00;95468.00;4992913;28;20440;-73
2022/11/19 01:41:28;;;;;;;10.60;8.90;;;;;;;-1.00;100.00;95426.81;4991646;28;21269;-73
2022/11/19 01:44:01;;;;;;;13.47;10.33;;;;;;;-0.84;100.00;95457.78;4994655;28;20466;-72
2022/11/19 01:46:30;;;;;;;13.73;10.10;;;;;;;-0.92;100.00;95469.53;5001272;28;20491;-73
2022/11/19 01:49:13;;;;;;;14.00;9.83;;;;;;;-0.81;100.00;95462.41;4997787;28;20474;-73
2022/11/19 01:51:47;;;;;;;14.13;9.83;;;;;;;-1.06;100.00;95438.28;4992191;28;20475;-73
2022/11/19 01:54:32;;;;;;;14.87;10.20;;;;;;;-0.85;100.00;95475.16;4985583;28;20428;-73
2022/11/19 01:57:05;;;;;;;16.80;10.93;;;;;;;-0.81;100.00;95473.56;4972018;28;20469;-73
2022/11/19 01:59:32;;;;;;;10.73;8.90;;;;;;;-0.91;100.00;95463.31;4972321;28;20948;-73
2022/11/19 02:01:59;;;;;;;13.97;9.50;;;;;;;-0.97;100.00;95443.63;4987610;28;20440;-73
2022/11/19 02:04:26;;;;;;;13.23;10.00;;;;;;;-0.91;100.00;95466.66;4992500;28;20551;-73
2022/11/19 02:06:53;;;;;;;14.10;11.47;;;;;;;-0.98;100.00;95449.88;4992510;28;21022;-73
2022/11/19 02:09:21;;;;;;;14.57;9.93;;;;;;;-0.99;100.00;95453.50;4959363;28;20473;-73
2022/11/19 02:11:59;;;;;;;14.87;10.17;;;;;;;-0.84;100.00;95479.31;4975161;28;20444;-73
2022/11/19 02:14:44;;;;;;;13.43;10.90;;;;;;;-1.09;100.00;95440.63;4992541;28;20432;-73
2022/11/19 02:17:44;;;;;;;13.83;10.87;;;;;;;-0.93;100.00;95483.56;4991161;28;20450;-73
2022/11/19 02:20:17;;;;;;;14.27;10.93;;;;;;;-0.77;100.00;95466.78;4974822;28;20515;-73
2022/11/19 02:23:07;;;;;;;11.00;8.83;;;;;;;-1.03;100.00;95447.34;4990948;28;20439;-73
2022/11/19 02:25:37;;;;;;;16.27;12.20;;;;;;;-0.97;100.00;95480.72;4990997;28;20424;-73
2022/11/19 02:28:19;;;;;;;13.97;10.47;;;;;;;-0.87;100.00;95474.66;4992010;28;20455;-71
2022/11/19 02:30:50;;;;;;;13.13;10.47;;;;;;;-0.79;100.00;95478.50;4965083;28;20443;-73
2022/11/19 02:33:34;;;;;;;14.60;11.70;;;;;;;-1.03;100.00;95452.53;4971520;28;20437;-73
2022/11/19 02:36:28;;;;;;;15.00;11.30;;;;;;;-0.84;100.00;95484.50;4971495;28;20535;-72
2022/11/19 02:39:08;;;;;;;15.77;10.23;;;;;;;-0.81;100.00;95481.34;4961704;28;20493;-73
2022/11/19 02:42:08;;;;;;;15.30;12.33;;;;;;;-0.88;100.00;95480.91;4971321;28;20471;-73
2022/11/19 02:45:01;;;;;;;14.50;11.03;;;;;;;-0.80;100.00;95502.88;4967536;28;20556;-73
2022/11/19 02:47:34;;;;;;;15.27;11.07;;;;;;;-0.94;100.00;95497.56;4971735;28;20459;-72
2022/11/19 02:50:12;;;;;;;15.40;12.40;;;;;;;-1.09;100.00;95475.13;4971135;28;20457;-72
2022/11/19 02:52:41;;;;;;;14.30;11.50;;;;;;;-0.86;100.00;95496.97;4972658;28;21035;-73
2022/11/19 02:55:15;;;;;;;15.53;12.20;;;;;;;-0.80;100.00;95497.69;4972402;28;20452;-72
2022/11/19 02:57:47;;;;;;;17.07;14.50;;;;;;;-0.85;100.00;95508.13;4971087;28;20514;-72
2022/11/19 03:06:06;;;;;;;15.57;11.87;;;;;;;-0.80;100.00;95521.03;4972341;28;20425;-72
2022/11/19 03:08:32;;;;;;;16.30;12.13;;;;;;;-0.95;100.00;95508.97;4970804;28;20468;-72
2022/11/19 03:11:12;;;;;;;15.77;11.60;;;;;;;-0.92;100.00;95518.81;4971112;28;20961;-72
2022/11/19 03:16:40;;;;;;;18.03;13.30;;;;;;;-0.95;100.00;95499.38;4971059;28;20445;-72
2022/11/19 03:19:19;;;;;;;16.13;11.70;;;;;;;-0.93;100.00;95512.88;4970924;28;20521;-72
2022/11/19 03:22:04;;;;;;;17.20;13.00;;;;;;;-0.72;100.00;95510.06;4970847;28;20473;-72
2022/11/19 03:24:57;;;;;;;14.40;12.37;;;;;;;-0.77;100.00;95529.06;4970971;28;20468;-72
2022/11/19 03:27:28;;;;;;;15.10;12.00;;;;;;;-0.85;100.00;95531.47;4970891;28;20642;-72
2022/11/19 03:29:56;;;;;;;14.77;12.60;;;;;;;-0.67;100.00;95538.56;4970919;28;20437;-72
2022/11/19 03:32:45;;;;;;;17.20;13.63;;;;;;;-0.60;100.00;95546.81;4970795;28;20440;-72
2022/11/19 03:35:19;;;;;;;16.43;12.03;;;;;;;-0.92;100.00;95511.81;4970924;28;20480;-72
2022/11/19 03:37:49;;;;;;;16.13;13.00;;;;;;;-0.77;100.00;95544.63;4970812;28;21030;-72
2022/11/19 03:40:18;;;;;;;15.27;10.90;;;;;;;-0.88;100.00;95540.56;4972106;28;20444;-72
2022/11/19 03:42:49;;;;;;;18.37;13.63;;;;;;;-1.07;100.00;95514.53;4972048;28;20425;-72
2022/11/19 03:45:21;;;;;;;16.20;12.07;;;;;;;-0.79;100.00;95551.16;4971010;28;20461;-72
2022/11/19 03:47:50;;;;;;;19.23;13.20;;;;;;;-0.75;100.00;95557.34;4970795;28;20504;-72
2022/11/19 03:50:46;;;;;;;17.33;13.27;;;;;;;-1.01;100.00;95534.19;4972173;28;20479;-72
2022/11/19 03:53:13;;;;;;;18.33;12.77;;;;;;;-0.85;100.00;95563.38;4970963;28;20445;-72
2022/11/19 03:55:46;;;;;;;19.50;14.93;;;;;;;-0.96;100.00;95569.69;4970990;28;20448;-72
2022/11/19 03:58:12;;;;;;;17.80;13.37;;;;;;;-1.08;100.00;95548.50;4971221;28;20849;-72
2022/11/19 04:00:39;;;;;;;19.90;15.37;;;;;;;-1.03;100.00;95545.91;4975822;28;20803;-72
2022/11/19 04:03:05;;;;;;;16.43;12.93;;;;;;;-1.01;100.00;95556.75;4976012;28;20436;-72
2022/11/19 04:05:32;;;;;;;19.40;13.80;;;;;;;-1.20;100.00;95538.50;4976916;28;20820;-72
2022/11/19 04:07:59;;;;;;;19.57;14.83;;;;;;;-1.10;100.00;95574.72;4994309;28;20538;-72
2022/11/19 04:10:25;;;;;;;21.47;14.90;;;;;;;-1.21;100.00;95550.66;4994236;28;20813;-72
2022/11/19 04:12:52;;;;;;;18.07;13.40;;;;;;;-1.32;100.00;95535.47;4978242;28;20437;-72
2022/11/19 04:15:18;;;;;;;19.33;14.37;;;;;;;-1.37;100.00;95554.41;4995015;28;20444;-72
2022/11/19 04:17:45;;;;;;;20.47;14.00;;;;;;;-1.32;100.00;95556.22;5010598;28;20688;-72
2022/11/19 04:20:12;;;;;;;18.70;12.50;;;;;;;-1.41;100.00;95555.22;4993514;28;20543;-72
2022/11/19 04:22:38;;;;;;;20.77;15.23;;;;;;;-1.52;100.00;95547.50;4994476;28;20931;-72
2022/11/19 04:25:05;;;;;;;20.73;14.03;;;;;;;-1.46;100.00;95555.28;4976960;28;20464;-72
2022/11/19 04:27:32;;;;;;;15.47;12.03;;;;;;;-1.55;100.00;95565.41;4992976;28;20459;-72
2022/11/19 04:29:59;;;;;;;22.83;14.33;;;;;;;-1.67;100.00;95560.56;4992947;28;20436;-72
2022/11/19 04:32:25;;;;;;;18.33;13.47;;;;;;;-1.70;100.00;95550.72;4976866;28;20443;-72
2022/11/19 04:34:52;;;;;;;18.17;13.23;;;;;;;-1.71;100.00;95548.41;4976749;28;20432;-72
2022/11/19 04:37:19;;;;;;;17.33;12.87;;;;;;;-1.58;100.00;95564.13;4976675;28;20948;-72
2022/11/19 04:39:46;;;;;;;20.57;13.30;;;;;;;-1.41;100.00;95584.50;4994254;28;20456;-72
2022/11/19 04:42:12;;;;;;;17.20;12.53;;;;;;;-1.38;100.00;95589.16;4994048;28;20432;-71
2022/11/19 04:44:39;;;;;;;20.13;13.43;;;;;;;-1.39;100.00;95590.19;4992829;28;20464;-72
2022/11/19 04:47:05;;;;;;;16.30;12.67;;;;;;;-1.67;100.00;95544.22;4992674;28;20546;-72
2022/11/19 04:49:32;;;;;;;19.23;12.30;;;;;;;-1.63;100.00;95550.41;4992699;28;20471;-72
2022/11/19 04:51:59;;;;;;;20.80;14.70;;;;;;;-1.40;100.00;95577.50;4992690;28;20440;-71
2022/11/19 04:54:25;;;;;;;17.03;12.73;;;;;;;-1.58;100.00;95571.16;4986230;28;20431;-72
2022/11/19 04:56:52;;;;;;;19.53;14.70;;;;;;;-1.45;100.00;95590.50;4956952;28;20443;-72
2022/11/19 04:59:18;;;;;;;18.27;14.30;;;;;;;-1.49;100.00;95598.03;4989226;28;20457;-72
2022/11/19 05:01:45;;;;;;;19.77;14.57;;;;;;;-1.53;100.00;95591.84;4987404;28;20434;-72
2022/11/19 05:04:12;;;;;;;20.90;13.97;;;;;;;-1.72;100.00;95577.94;4992265;28;20478;-72
2022/11/19 05:06:39;;;;;;;24.57;15.80;;;;;;;-1.58;100.00;95597.06;4976075;28;20822;-72
2022/11/19 05:09:06;;;;;;;20.50;13.97;;;;;;;-1.73;100.00;95581.59;4976201;28;20547;-72
2022/11/19 05:11:32;;;;;;;24.70;15.90;;;;;;;-1.68;100.00;95604.88;4991281;28;20447;-72
2022/11/19 05:13:59;;;;;;;19.50;12.50;;;;;;;-1.85;100.00;95590.44;4992527;28;20475;-72
2022/11/19 05:16:26;;;;;;;17.90;13.20;;;;;;;-1.64;100.00;95609.25;4975853;28;20560;-72
2022/11/19 05:18:52;;;;;;;20.57;14.80;;;;;;;-1.98;100.00;95579.88;4992053;28;20465;-72
2022/11/19 05:21:19;;;;;;;24.43;15.57;;;;;;;-1.76;100.00;95613.19;4975845;28;20813;-72
2022/11/19 05:23:45;;;;;;;24.00;15.80;;;;;;;-1.78;100.00;95608.28;4991914;28;20448;-72
2022/11/19 05:26:12;;;;;;;22.57;15.10;;;;;;;-1.85;100.00;95603.38;4975904;28;20467;-72
2022/11/19 05:28:39;;;;;;;20.70;15.53;;;;;;;-2.22;100.00;95558.97;5012095;28;20994;-72
2022/11/19 05:31:06;;;;;;;21.27;14.70;;;;;;;-1.97;100.00;95602.91;4997103;28;20436;-73
2022/11/19 05:33:33;;;;;;;25.07;16.10;;;;;;;-2.28;100.00;95550.44;4992251;28;20964;-72
2022/11/19 05:36:01;;;;;;;19.90;14.60;;;;;;;-2.01;100.00;95581.16;4991939;28;20501;-72
2022/11/19 05:38:27;;;;;;;18.93;14.23;;;;;;;-1.82;100.00;95597.66;4991625;28;20481;-72
2022/11/19 05:40:54;;;;;;;20.27;15.40;;;;;;;-1.89;100.00;95604.94;4991768;28;20487;-72
2022/11/19 05:43:21;;;;;;;20.20;15.10;;;;;;;-1.94;100.00;95589.44;4991576;28;20439;-72
2022/11/19 05:45:47;;;;;;;20.90;15.37;;;;;;;-2.04;100.00;95586.88;4992767;28;20461;-72
2022/11/19 05:48:14;;;;;;;21.60;15.70;;;;;;;-1.99;100.00;95609.41;4975283;28;20464;-72
2022/11/19 05:50:41;;;;;;;19.53;14.17;;;;;;;-2.14;100.00;95573.94;4991303;28;20437;-72
2022/11/19 05:53:08;;;;;;;21.97;16.37;;;;;;;-2.04;100.00;95575.72;4975244;28;20940;-72
2022/11/19 05:55:35;;;;;;;22.13;14.27;;;;;;;-2.04;100.00;95593.84;4958428;28;20436;-72
2022/11/19 05:58:02;;;;;;;25.00;16.53;;;;;;;-1.90;100.00;95620.75;4972042;28;20552;-72
2022/11/19 06:00:29;;;;;;;22.97;15.27;;;;;;;-1.83;100.00;95618.66;4976165;28;20995;-72
2022/11/19 06:02:55;;;;;;;20.07;13.60;;;;;;;-1.95;100.00;95624.13;4991417;28;20431;-72
2022/11/19 06:05:22;;;;;;;21.53;15.10;;;;;;;-1.93;100.00;95624.66;4992275;28;20555;-72
2022/11/19 06:07:49;;;;;;;24.30;16.50;;;;;;;-1.95;100.00;95623.34;4992376;28;20818;-72
2022/11/19 06:10:16;;;;;;;24.40;16.83;;;;;;;-1.98;100.00;95632.44;4990932;28;20444;-72
2022/11/19 06:12:43;;;;;;;26.00;16.40;;;;;;;-1.94;100.00;95643.03;4975067;28;20454;-72
2022/11/19 06:15:12;;;;;;;19.10;13.77;;;;;;;-2.17;100.00;95608.13;4991062;28;20436;-72
2022/11/19 06:17:39;;;;;;;22.10;15.77;;;;;;;-2.12;100.00;95632.22;4992364;28;20464;-72
2022/11/19 06:20:10;;;;;;;21.30;14.90;;;;;;;-2.16;100.00;95635.56;4991041;28;20863;-72
2022/11/19 06:22:37;;;;;;;21.10;13.87;;;;;;;-1.98;100.00;95658.34;4990997;28;20539;-72
2022/11/19 06:25:05;;;;;;;24.60;15.77;;;;;;;-2.10;100.00;95647.47;4990664;28;20464;-72
2022/11/19 06:27:31;;;;;;;24.60;16.30;;;;;;;-2.21;100.00;95649.31;4990852;28;20464;-72
2022/11/19 06:29:58;;;;;;;23.47;15.20;;;;;;;-2.27;100.00;95623.69;4974630;28;20539;-72
2022/11/19 06:32:25;;;;;;;21.60;15.17;;;;;;;-2.04;100.00;95636.06;4990829;28;20447;-72
2022/11/19 06:34:51;;;;;;;25.13;15.67;;;;;;;-2.13;100.00;95637.66;4974617;28;20436;-71
2022/11/19 06:37:18;;;;;;;22.10;14.50;;;;;;;-2.05;100.00;95644.09;4990629;28;20483;-71
2022/11/19 06:39:45;;;;;;;20.13;14.40;;;;;;;-2.27;100.00;95628.84;4990607;28;20459;-72
2022/11/19 06:44:57;;;;;;;18.20;12.60;;;;;;;-2.14;100.00;95636.09;4990623;28;21392;-72
2022/11/19 06:47:23;;;;;;;22.00;15.30;;;;;;;-2.21;100.00;95653.72;4990498;28;20534;-71
2022/11/19 06:49:50;;;;;;;17.97;13.67;;;;;;;-2.08;100.00;95671.28;4990702;28;20431;-71
2022/11/19 06:52:16;;;;;;;18.47;14.13;;;;;;;-2.23;100.00;95642.84;4974290;28;20540;-72
2022/11/19 06:54:43;;;;;;;22.33;16.87;;;;;;;-2.38;100.00;95654.00;4980548;28;20469;-72
2022/11/19 06:57:10;;;;;;;19.73;15.20;;;;;;;-2.31;100.00;95666.66;4972365;28;20429;-72
2022/11/19 06:59:37;;;;;;;17.00;14.10;;;;;;;-2.24;100.00;95667.97;4971005;28;20453;-72
2022/11/19 07:02:05;;;;;;;22.53;13.90;;;;;;;-2.44;100.00;95679.09;4987550;28;20521;-72
2022/11/19 07:04:32;;;;;;;17.80;13.30;;;;;;;-2.70;100.00;95654.25;4990234;28;20940;-72
2022/11/19 07:06:58;;;;;;;21.90;13.20;;;;;;;-2.41;100.00;95675.19;4990206;28;20448;-72
2022/11/19 07:09:25;;;;;;;22.10;14.77;;;;;;;-2.59;100.00;95648.03;4991659;28;20466;-72
2022/11/19 07:11:52;;;;;;;20.87;14.50;;;;;;;-2.32;100.00;95686.59;4996069;28;20444;-72
2022/11/19 07:14:18;;;;;;;19.30;13.17;;;;;;;-2.69;100.00;95658.38;4992374;28;20439;-71
2022/11/19 07:16:45;;;;;;;20.93;14.30;;;;;;;-2.64;100.00;95653.22;4974411;28;20434;-72
2022/11/19 07:19:12;;;;;;;20.70;14.37;;;;;;;-2.48;100.00;95695.41;4990293;28;20879;-72
2022/11/19 07:21:39;;;;;;;23.67;16.03;;;;;;;-2.62;100.00;95715.06;5006863;28;20436;-72
2022/11/19 07:24:07;;;;;;;18.20;12.33;;;;;;;-2.72;100.00;95708.06;4992424;28;20442;-72
2022/11/19 07:26:35;;;;;;;22.80;15.00;;;;;;;-2.52;100.00;95710.66;4991048;28;20463;-72
2022/11/19 07:29:06;;;;;;;23.67;14.13;;;;;;;-2.77;100.00;95698.50;4992250;28;20539;-72
2022/11/19 07:31:33;;;;;;;24.73;14.93;;;;;;;-2.77;100.00;95706.25;4991958;28;20547;-72
2022/11/19 07:34:00;;;;;;;19.03;13.47;;;;;;;-2.66;100.00;95712.22;4995116;28;20526;-71
2022/11/19 07:36:27;;;;;;;19.73;14.30;;;;;;;-2.79;100.00;95692.03;4994751;28;21127;-72
2022/11/19 07:38:54;;;;;;;19.97;13.37;;;;;;;-2.71;100.00;95707.03;4979307;28;20558;-71
2022/11/19 07:44:06;;;;;;;20.80;14.10;;;;;;;-3.01;100.00;95692.25;4996629;28;20428;-72
2022/11/19 07:46:33;;;;;;;22.23;14.13;;;;;;;-2.91;100.00;95699.25;4996119;28;20462;-71
2022/11/19 07:49:00;;;;;;;23.10;15.23;;;;;;;-2.65;100.00;95720.75;4994610;28;20476;-72
2022/11/19 07:51:27;;;;;;;16.87;12.57;;;;;;;-2.75;100.00;95693.06;4994898;28;20440;-72
2022/11/19 07:53:55;;;;;;;24.00;14.50;;;;;;;-2.71;100.00;95719.94;4992148;28;20531;-72
2022/11/19 07:56:21;;;;;;;20.67;14.60;;;;;;;-2.86;100.00;95710.38;4975547;28;20538;-71
2022/11/19 07:58:48;;;;;;;23.97;15.40;;;;;;;-2.72;100.00;95739.09;4975345;28;20470;-72
2022/11/19 08:01:20;;;;;;;24.03;15.77;;;;;;;-3.02;100.00;95701.03;4985780;28;20516;-71
2022/11/19 08:03:48;;;;;;;21.57;15.00;;;;;;;-2.63;100.00;95729.03;4996242;28;20457;-72
2022/11/19 08:06:24;;;;;;;26.27;15.60;;;;;;;-2.47;100.00;95730.59;4996421;28;20459;-71
2022/11/19 08:08:51;;;;;;;24.60;16.17;;;;;;;-2.84;100.00;95686.81;4978526;28;20462;-71
2022/11/19 08:11:18;;;;;;;27.50;16.73;;;;;;;-2.76;100.00;95710.38;4994621;28;20542;-70
2022/11/19 08:13:45;;;;;;;20.20;14.13;;;;;;;-2.81;100.00;95735.44;4978139;28;20475;-72
2022/11/19 08:18:11;;;;;;;21.23;14.00;;;;;;;-2.77;100.00;95746.84;4994746;28;20431;-71
2022/11/19 08:19:08;;;;;;;19.10;14.33;;;;;;;-2.88;100.00;95727.94;4993565;28;20460;-71
2022/11/19 08:21:38;;;;;;;23.43;16.00;;;;;;;-2.63;100.00;95747.91;4996171;28;20439;-71
2022/11/19 08:24:06;;;;;;;22.10;14.87;;;;;;;-2.61;100.00;95737.31;4994144;28;20439;-71
2022/11/19 08:26:32;;;;;;;24.77;16.70;;;;;;;-2.81;100.00;95704.41;4993115;28;20471;-71
2022/11/19 08:28:59;;;;;;;20.37;15.30;;;;;;;-2.79;100.00;95708.31;4993070;28;20451;-72
2022/11/19 08:31:26;;;;;;;22.47;14.80;;;;;;;-2.61;100.00;95732.91;4976716;28;20510;-71
2022/11/19 08:33:52;;;;;;;25.20;14.23;;;;;;;-2.81;100.00;95704.41;4992831;28;20436;-72
2022/11/19 08:36:19;;;;;;;22.50;14.13;;;;;;;-2.82;100.00;95726.13;4993952;28;20474;-71
2022/11/19 08:38:46;;;;;;;24.90;15.90;;;;;;;-2.78;100.00;95727.19;4992471;28;20452;-71
2022/11/19 08:44:00;;;;;;;21.23;15.50;;;;;;;-2.63;100.00;95741.97;4993655;28;20448;-71
2022/11/19 08:46:27;;;;;;;25.63;15.33;;;;;;;-2.51;100.00;95745.09;4994149;28;20460;-72
2022/11/19 08:48:53;;;;;;;22.43;14.90;;;;;;;-2.44;100.00;95743.78;4992495;28;20460;-71
2022/11/19 08:51:20;;;;;;;21.43;14.80;;;;;;;-2.53;100.00;95749.75;4992425;28;20439;-71
2022/11/19 08:53:47;;;;;;;24.70;16.20;;;;;;;-2.64;100.00;95750.75;5006222;28;20931;-71
2022/11/19 08:56:13;;;;;;;25.70;15.63;;;;;;;-2.47;100.00;95743.53;4972885;28;20942;-71
2022/11/19 08:58:43;;;;;;;19.17;14.40;;;;;;;-2.52;100.00;95731.38;4972873;28;20980;-71
2022/11/19 09:01:12;;;;;;;22.07;15.73;;;;;;;-2.41;100.00;95748.44;4982549;28;20941;-71
2022/11/19 09:03:39;;;;;;;23.90;16.77;;;;;;;-2.45;100.00;95751.81;4975941;28;20436;-72
2022/11/19 09:06:06;;;;;;;20.47;14.37;;;;;;;-2.65;100.00;95752.56;4992318;28;20458;-72
2022/11/19 09:08:33;;;;;;;19.60;13.33;;;;;;;-2.63;100.00;95749.72;4992038;28;20478;-71
2022/11/19 09:11:05;;;;;;;23.20;15.47;;;;;;;-2.56;100.00;95740.66;4992068;28;20444;-71
2022/11/19 09:13:32;;;;;;;19.47;14.17;;;;;;;-2.53;100.00;95749.75;4991768;28;20436;-71
2022/11/19 09:15:58;;;;;;;23.83;17.93;;;;;;;-2.72;100.00;95750.22;4975700;28;20963;-71
2022/11/19 09:18:25;;;;;;;21.60;14.10;;;;;;;-2.80;100.00;95765.47;4991668;28;20555;-71
2022/11/19 09:20:55;;;;;;;21.47;14.07;;;;;;;-2.75;100.00;95758.50;4993074;28;21051;-71
2022/11/19 09:23:23;;;;;;;23.43;16.17;;;;;;;-2.97;100.00;95721.72;4993090;28;20442;-71
2022/11/19 09:26:01;;;;;;;23.27;15.90;;;;;;;-2.89;100.00;95754.84;4975684;28;20471;-72
2022/11/19 09:28:30;;;;;;;23.27;17.20;;;;;;;-2.83;100.00;95756.38;4991640;28;20517;-71
2022/11/19 09:30:58;;;;;;;28.30;16.20;;;;;;;-2.72;100.00;95768.31;4991764;28;20494;-71
2022/11/19 09:33:27;;;;;;;29.40;15.87;;;;;;;-2.70;100.00;95768.06;4993227;28;20428;-71
2022/11/19 09:35:54;;;;;;;22.53;14.27;;;;;;;-2.66;100.00;95774.31;4991851;28;20452;-71
2022/11/19 09:38:24;;;;;;;20.23;15.60;;;;;;;-2.91;100.00;95738.81;4991969;28;20996;-70
2022/11/19 09:40:58;;;;;;;26.93;18.00;;;;;;;-2.98;100.00;95744.19;4992644;28;20486;-70
2022/11/19 09:43:41;;;;;;;26.17;15.83;;;;;;;-2.83;100.00;95758.19;4992230;28;20448;-71
2022/11/19 09:46:13;;;;;;;23.83;16.73;;;;;;;-2.89;100.00;95741.13;4992126;28;20514;-71
2022/11/19 09:48:40;;;;;;;23.13;14.70;;;;;;;-2.52;100.00;95757.25;4991813;28;20463;-70
2022/11/19 09:51:12;;;;;;;21.37;14.23;;;;;;;-2.47;100.00;95720.25;4991748;28;20467;-71
2022/11/19 09:53:48;;;;;;;23.67;15.63;;;;;;;-2.21;100.00;95754.69;4990098;28;20444;-70
2022/11/19 09:56:22;;;;;;;20.70;16.23;;;;;;;-2.40;100.00;95759.59;4971992;28;20436;-70
2022/11/19 09:58:48;;;;;;;21.60;15.33;;;;;;;-2.32;100.00;95760.88;4973519;28;20870;-70
2022/11/19 10:01:17;;;;;;;21.60;14.80;;;;;;;-2.12;100.00;95755.72;4965740;28;20454;-71
2022/11/19 10:03:47;;;;;;;25.10;16.10;;;;;;;-2.26;100.00;95734.75;4992544;28;20871;-71
2022/11/19 10:06:14;;;;;;;19.63;15.90;;;;;;;-1.98;100.00;95769.69;4992680;28;20456;-71
2022/11/19 10:09:01;;;;;;;23.33;14.77;;;;;;;-2.05;100.00;95769.16;4991221;28;20452;-71
2022/11/19 10:11:37;;;;;;;28.93;16.87;;;;;;;-1.88;100.00;95761.88;4991509;28;20452;-71
2022/11/19 10:14:28;;;;;;;24.03;15.73;;;;;;;-1.75;100.00;95765.75;4992718;28;20428;-71
2022/11/19 10:17:16;;;;;;;23.53;14.93;;;;;;;-1.82;100.00;95762.69;5007308;28;20932;-71
2022/11/19 10:20:10;;;;;;;24.87;14.60;;;;;;;-1.92;100.00;95732.38;4990916;28;20489;-71
2022/11/19 10:23:02;;;;;;;24.03;14.73;;;;;;;-2.29;100.00;95747.41;4991092;28;20446;-71
2022/11/19 10:25:38;;;;;;;19.20;15.63;;;;;;;-1.90;100.00;95774.34;4988355;28;20450;-71
2022/11/19 10:28:24;;;;;;;22.90;15.40;;;;;;;-1.86;100.00;95738.34;4968583;28;20468;-71
2022/11/19 10:30:54;;;;;;;22.77;15.37;;;;;;;-1.76;100.00;95771.22;4970983;28;20440;-71
2022/11/19 10:33:34;;;;;;;23.13;15.53;;;;;;;-1.55;100.00;95770.94;4975944;28;21375;-71
2022/11/19 10:36:11;;;;;;;21.97;14.73;;;;;;;-2.07;100.00;95711.69;4969122;28;20439;-72
2022/11/19 10:39:08;;;;;;;21.07;13.73;;;;;;;-1.64;100.00;95769.13;4975488;28;20470;-71
2022/11/19 10:41:50;;;;;;;24.97;15.27;;;;;;;-1.81;100.00;95767.59;4968717;28;20937;-71
2022/11/19 10:44:36;;;;;;;25.93;15.30;;;;;;;-1.89;100.00;95762.94;4995700;28;20440;-71
2022/11/19 10:47:05;;;;;;;20.97;14.17;;;;;;;-2.04;100.00;95744.03;4961418;28;20461;-71
2022/11/19 10:49:38;;;;;;;26.63;16.67;;;;;;;-1.56;100.00;95738.28;4974348;28;20475;-71
2022/11/19 10:52:16;;;;;;;27.67;16.67;;;;;;;-1.39;100.00;95726.81;4966643;28;20442;-71
2022/11/19 10:54:45;;;;;;;19.10;15.10;;;;;;;-1.24;100.00;95750.88;4985743;28;20443;-71
2022/11/19 10:57:15;;;;;;;19.73;14.23;;;;;;;-1.38;100.00;95749.09;4974190;28;20479;-71
2022/11/19 10:59:42;;;;;;;19.20;13.87;;;;;;;-1.64;100.00;95749.16;4969127;28;20458;-71
2022/11/19 11:02:23;;;;;;;17.57;13.73;;;;;;;-1.80;100.00;95743.25;4943639;28;20548;-71
2022/11/19 11:05:02;;;;;;;22.63;13.60;;;;;;;-1.77;100.00;95759.28;4968916;28;20453;-71
2022/11/19 11:07:50;;;;;;;19.43;13.67;;;;;;;-1.35;100.00;95762.31;4974894;28;20512;-71
2022/11/19 11:10:26;;;;;;;19.10;12.27;;;;;;;-1.57;100.00;95748.91;4979637;28;20447;-72
2022/11/19 11:15:45;;;;;;;24.37;15.50;;;;;;;-1.68;100.00;95742.97;4975562;28;20458;-72
2022/11/19 11:18:14;;;;;;;20.00;12.60;;;;;;;-1.70;100.00;95713.94;4994503;28;20490;-71
2022/11/19 11:20:48;;;;;;;20.53;14.70;;;;;;;-1.79;100.00;95713.72;4974954;28;20444;-72
2022/11/19 11:23:19;;;;;;;17.77;13.77;;;;;;;-1.48;100.00;95748.09;4988674;28;20442;-72
2022/11/19 11:25:52;;;;;;;20.10;14.13;;;;;;;-1.53;100.00;95719.59;4978079;28;20451;-72
2022/11/19 11:28:22;;;;;;;23.30;15.97;;;;;;;-1.36;100.00;95745.19;4960032;28;20460;-72
2022/11/19 11:30:54;;;;;;;23.93;15.27;;;;;;;-1.50;100.00;95749.41;4994600;28;20519;-72
2022/11/19 11:33:33;;;;;;;17.23;11.93;;;;;;;-1.64;100.00;95745.81;4988928;28;21002;-72
2022/11/19 11:36:14;;;;;;;22.57;13.83;;;;;;;-1.55;100.00;95708.72;4995439;28;20999;-71
2022/11/19 11:38:50;;;;;;;15.03;11.77;;;;;;;-1.61;100.00;95732.31;4994081;28;20459;-71
2022/11/19 11:41:19;;;;;;;22.07;13.83;;;;;;;-1.58;100.00;95717.03;4975655;28;20802;-71
2022/11/19 11:44:17;;;;;;;22.50;15.30;;;;;;;-1.25;100.00;95728.56;4995474;28;21012;-71
2022/11/19 11:46:49;;;;;;;18.97;12.70;;;;;;;-1.59;100.00;95696.56;4993834;28;20506;-71
2022/11/19 11:49:34;;;;;;;17.47;13.37;;;;;;;-0.96;100.00;95736.47;4995616;28;20531;-71
2022/11/19 11:52:12;;;;;;;18.73;13.23;;;;;;;-1.01;100.00;95731.31;4994018;28;20539;-71